AirNav   Free Bose QuietComfort 20
 
 1562 users online  

AZ45 China Peak Observatory Airport
Klondyke, Arizona, USA

GOING TO KLONDYKE?


FAA INFORMATION EFFECTIVE 05 DECEMBER 2019

Location

FAA Identifier: AZ45
Lat/Long: 32-43-45.2450N 110-17-47.3110W
32-43.754083N 110-17.788517W
32.7292347,-110.2964753
(estimated)
Elevation: 4800 ft. / 1463 m (estimated)
Variation: 12E (1985)
From city: 7 miles SE of KLONDYKE, AZ
Time zone: UTC -7 (year round; does not observe DST)
Zip code: 85643

Airport Operations

Airport use: Private use. Permission required prior to landing
Activation date: 07/1989
Control tower: no
ARTCC: ALBUQUERQUE CENTER
FSS: PRESCOTT FLIGHT SERVICE STATION
Attendance: IREG
Wind indicator: yes
Segmented circle: no

Airport Communications

WX AWOS-3PT at E77 (19 nm W): 134.125 (520-385-4238)

Airport Services

Runway Information

Runway 1/19

Dimensions: 4500 x 150 ft. / 1372 x 46 m
Surface: turf
RUNWAY 1  RUNWAY 19
Traffic pattern: leftleft

Runway 4/22

Dimensions: 3100 x 125 ft. / 945 x 38 m
Surface: turf
RUNWAY 4  RUNWAY 22
Traffic pattern: leftleft

Runway 15/33

Dimensions: 1950 x 110 ft. / 594 x 34 m
Surface: turf
RUNWAY 15  RUNWAY 33
Traffic pattern: leftleft

Runway 12/30

Dimensions: 1650 x 120 ft. / 503 x 37 m
Surface: turf
RUNWAY 12  RUNWAY 30
Traffic pattern: leftleft

Airport Ownership and Management from official FAA records

Ownership: Privately-owned
Owner: D. MORRIS
2525 E CAPITAN DREYFUS AVE
PHOENIX, AZ 85032
Phone 602-267-7447
Manager: NONE

Airport Operational Statistics

Aircraft based on the field: 1
Single engine airplanes: 1
    

Additional Remarks

FOR CD CTC ALBUQUERQUE ARTCC AT 505-856-4861.

Instrument Procedures

There are no published instrument procedures at AZ45.

Some nearby airports with instrument procedures:

KSAD - Safford Regional Airport (34 nm E)
P33 - Cochise County Airport (35 nm SE)
P13 - San Carlos Apache Airport (42 nm NW)
KDMA - Davis Monthan Air Force Base (45 nm SW)
KTUS - Tucson International Airport (49 nm SW)
 
Loc | Ops | Rwys | IFR | FBO | Links
Com | Nav | Svcs | Stats | Notes
Area around AZ45 (China Peak Observatory Airport)
 
Road maps at: MapQuest Bing Google
 
Aerial photo
No photo
 
Sectional chart

 
Airport distance calculator
Flying to China Peak Observatory Airport? Find the distance to fly.

From to AZ45

Sunrise and sunset
Times for 05-Dec-2019
 Local
(UTC-7)
 Zulu
(UTC)
Morning civil twilight06:4313:43
Sunrise07:1014:10
Sunset17:1400:14
Evening civil twilight17:4100:41

Current date and time
Zulu (UTC)  05-Dec-2019 15:37:03
Local (UTC-7)  05-Dec-2019 08:37:03
 
METAR
KSAD 
34nm E 
051451Z AUTO 00000KT 10SM OVC070 12/07 A3012 RMK AO2 SLP173 T01170072 53019
KDMA 
44nm SW 
051458Z AUTO 11006KT 10SM SCT060 11/07 A3011 RMK AO2 SLP175 T01100071 52014 $
KTUS 
49nm SW 
051453Z 16005KT 10SM SCT060 12/07 A3013 RMK AO2 SLP177 T01170072 52012
TAF
KDMA 
44nm SW 
051357Z 0514/0620 VRB06KT 9999 BKN050 QNH3010INS BECMG 0518/0519 31006KT 9999 SCT060 SCT250 QNH3010INS BECMG 0605/0606 10006KT 9999 SCT250 QNH3016INS TX19/0522Z TN09/0610Z
KTUS 
49nm SW 
051120Z 0512/0612 18007KT P6SM BKN060 BKN090 FM051900 31006KT P6SM SCT050 BKN250 FM060400 14005KT P6SM BKN250
NOTAMs
Click for the latest NOTAMs
NOTAMs are issued by the DoD/FAA and will open in a separate window not controlled by AirNav.

 

 
 

Would you like to see your business listed on this page?

 If your business provides an interesting product or service to pilots, flight crews, aircraft, or users of the China Peak Observatory Airport, you should consider listing it here.  To start the listing process, click on the button below
 
Add a business
 

Other Pages about China Peak Observatory Airport

Update a link
 
Copyright © AirNav, LLC. All rights reserved. Privacy Policy  Contact